createdAt,value
2023-03-20T00:02:24.553Z,172.20
2023-03-20T00:04:52.463Z,209.60
2023-03-20T00:07:20.426Z,190.20
2023-03-20T00:09:49.625Z,254.50
2023-03-20T00:12:24.877Z,239.40
2023-03-20T00:14:52.969Z,201.10
2023-03-20T00:17:21.686Z,184.40
2023-03-20T00:19:49.801Z,170.40
2023-03-20T00:22:17.717Z,189.00
2023-03-20T00:24:45.581Z,192.80
2023-03-20T00:27:15.953Z,181.10
2023-03-20T00:29:44.315Z,225.40
2023-03-20T00:32:13.582Z,190.60
2023-03-20T00:34:42.049Z,186.50
2023-03-20T00:37:11.874Z,171.70
2023-03-20T00:39:41.286Z,167.10
2023-03-20T00:42:19.862Z,157.20
2023-03-20T00:44:54.486Z,152.30
2023-03-20T00:47:25.896Z,153.40
2023-03-20T00:49:56.143Z,271.70
2023-03-20T00:52:24.974Z,216.10
2023-03-20T00:54:53.760Z,250.70
2023-03-20T00:57:29.549Z,208.00
2023-03-20T01:00:12.876Z,186.90
2023-03-20T01:02:40.776Z,174.70
2023-03-20T01:05:09.046Z,176.70
2023-03-20T01:07:36.900Z,195.40
2023-03-20T01:10:06.854Z,191.00
2023-03-20T01:12:35.896Z,179.80
2023-03-20T01:15:04.115Z,165.00
2023-03-20T01:17:32.408Z,159.70
2023-03-20T01:20:00.300Z,155.10
2023-03-20T01:22:28.790Z,154.00
2023-03-20T01:24:56.748Z,148.60
2023-03-20T01:27:24.739Z,164.00
2023-03-20T01:29:52.543Z,156.60
2023-03-20T01:32:20.935Z,162.90
2023-03-20T01:34:51.486Z,165.80
2023-03-20T01:37:26.715Z,154.70
2023-03-20T01:39:56.799Z,153.40
2023-03-20T01:42:25.125Z,144.20
2023-03-20T01:44:53.690Z,137.80
2023-03-20T01:47:24.650Z,139.80
2023-03-20T01:50:26.858Z,144.70
2023-03-20T01:53:13.622Z,134.40
2023-03-20T01:55:47.277Z,141.00
2023-03-20T01:58:28.004Z,143.20
2023-03-20T02:00:55.953Z,150.40
2023-03-20T02:03:24.714Z,161.20
2023-03-20T02:06:28.052Z,169.30
2023-03-20T02:09:08.421Z,155.80
2023-03-20T02:11:43.665Z,143.20
2023-03-20T02:14:15.091Z,144.40
2023-03-20T02:16:52.472Z,154.30
2023-03-20T02:19:44.845Z,157.10
2023-03-20T02:22:34.700Z,176.10
2023-03-20T02:25:38.250Z,209.20
2023-03-20T02:28:20.183Z,172.60
2023-03-20T02:31:21.762Z,169.30
2023-03-20T02:34:19.949Z,157.70
2023-03-20T02:36:54.002Z,157.50
2023-03-20T02:39:49.593Z,169.10
2023-03-20T02:44:54.121Z,166.30
2023-03-20T02:47:28.022Z,168.10
2023-03-20T02:50:44.853Z,168.30
2023-03-20T02:53:22.869Z,150.60
2023-03-20T02:55:57.262Z,137.20
2023-03-20T02:58:36.069Z,140.50
2023-03-20T03:01:14.450Z,133.20
2023-03-20T03:03:49.566Z,142.90
2023-03-20T03:06:24.374Z,142.70
2023-03-20T03:09:00.194Z,262.40
2023-03-20T03:11:28.455Z,141.70
2023-03-20T03:13:58.275Z,245.60
2023-03-20T03:16:31.453Z,215.50
2023-03-20T03:19:09.972Z,185.30
2023-03-20T03:21:40.446Z,160.10
2023-03-20T03:24:41.545Z,134.30
2023-03-20T03:27:18.564Z,141.40
2023-03-20T03:29:54.065Z,133.40
2023-03-20T03:32:47.582Z,139.90
2023-03-20T03:35:20.743Z,130.90
2023-03-20T03:38:01.857Z,126.60
2023-03-20T03:40:40.374Z,119.90
2023-03-20T03:43:24.838Z,112.70
2023-03-20T03:45:59.592Z,121.30
2023-03-20T03:48:33.518Z,119.10
2023-03-20T03:51:07.915Z,117.50
2023-03-20T03:53:43.375Z,119.20
2023-03-20T03:56:14.229Z,117.80
2023-03-20T03:58:47.500Z,124.60
2023-03-20T04:01:17.910Z,115.40
2023-03-20T04:03:57.200Z,112.80
2023-03-20T04:06:26.985Z,116.20
2023-03-20T04:08:55.228Z,110.80
2023-03-20T04:11:25.331Z,106.00
2023-03-20T04:13:53.516Z,118.60
2023-03-20T04:16:23.771Z,144.80
2023-03-20T04:18:53.154Z,131.20
2023-03-20T04:21:21.313Z,141.10
2023-03-20T04:23:49.471Z,153.80
2023-03-20T04:26:18.506Z,129.70
2023-03-20T04:28:46.621Z,117.40
2023-03-20T04:31:33.028Z,123.90
2023-03-20T04:34:24.939Z,120.60
2023-03-20T04:37:28.300Z,90.20
2023-03-20T04:40:08.240Z,114.50
2023-03-20T04:42:36.441Z,104.90
2023-03-20T04:45:08.201Z,106.20
2023-03-20T04:47:38.846Z,100.30
2023-03-20T04:50:08.052Z,103.20
2023-03-20T04:52:37.021Z,104.40
2023-03-20T04:55:05.643Z,100.40
2023-03-20T04:57:33.560Z,95.70
2023-03-20T05:00:01.485Z,92.90
2023-03-20T05:02:32.376Z,90.50
2023-03-20T05:05:00.385Z,88.30
2023-03-20T05:07:28.325Z,92.10
2023-03-20T05:10:06.503Z,89.60
2023-03-20T05:12:43.561Z,91.80
2023-03-20T05:15:44.605Z,96.50
2023-03-20T05:18:35.349Z,94.40
2023-03-20T05:21:12.885Z,85.90
2023-03-20T05:23:54.629Z,92.70
2023-03-20T05:26:32.341Z,88.10
2023-03-20T05:29:20.670Z,86.90
2023-03-20T05:32:07.279Z,89.90
2023-03-20T05:34:45.360Z,83.60
2023-03-20T05:37:24.108Z,76.70
2023-03-20T05:40:16.603Z,77.70
2023-03-20T05:42:56.207Z,72.10
2023-03-20T05:45:26.774Z,75.80
2023-03-20T05:47:54.526Z,70.00
2023-03-20T05:50:42.716Z,77.90
2023-03-20T05:53:37.444Z,73.60
2023-03-20T05:56:34.746Z,72.00
2023-03-20T05:59:22.399Z,83.30
2023-03-20T06:02:03.220Z,74.70
2023-03-20T06:04:35.132Z,71.10
2023-03-20T06:07:29.238Z,67.40
2023-03-20T06:10:01.112Z,72.10
2023-03-20T06:12:29.809Z,75.60
2023-03-20T06:14:57.732Z,69.40
2023-03-20T06:17:26.055Z,70.90
2023-03-20T06:19:59.503Z,77.30
2023-03-20T06:22:27.303Z,91.90
2023-03-20T06:24:57.292Z,69.80
2023-03-20T06:27:31.380Z,72.70
2023-03-20T06:29:59.266Z,68.10
2023-03-20T06:32:32.143Z,70.00
2023-03-20T06:35:01.822Z,73.00
2023-03-20T06:37:30.535Z,70.50
2023-03-20T06:40:06.713Z,70.80
2023-03-20T06:42:35.380Z,72.20
2023-03-20T06:45:04.203Z,68.70
2023-03-20T06:47:55.483Z,69.90
2023-03-20T06:50:23.346Z,68.10
2023-03-20T06:52:52.500Z,73.90
2023-03-20T06:55:38.982Z,69.10
2023-03-20T06:58:07.077Z,70.80
2023-03-20T07:00:35.252Z,70.20
2023-03-20T07:03:05.611Z,70.20
2023-03-20T07:05:33.992Z,75.40
2023-03-20T07:08:03.419Z,66.90
2023-03-20T07:10:32.075Z,71.20
2023-03-20T07:13:00.329Z,75.30
2023-03-20T07:15:30.174Z,76.30
2023-03-20T07:17:58.760Z,75.00
2023-03-20T07:20:28.057Z,79.90
2023-03-20T07:22:56.274Z,76.50
2023-03-20T07:25:41.357Z,81.50
2023-03-20T07:28:10.820Z,82.50
2023-03-20T07:30:41.992Z,87.70
2023-03-20T07:33:10.495Z,92.50
2023-03-20T07:35:39.804Z,87.10
2023-03-20T07:38:08.594Z,82.20
2023-03-20T07:40:43.833Z,86.00
2023-03-20T07:43:17.238Z,84.70
2023-03-20T07:46:06.728Z,88.80
2023-03-20T07:48:36.297Z,90.10
2023-03-20T07:51:05.429Z,95.10
2023-03-20T07:53:33.291Z,88.70
2023-03-20T07:56:01.231Z,76.80
2023-03-20T07:58:29.074Z,133.90
2023-03-20T08:00:58.825Z,133.40
2023-03-20T08:03:27.429Z,173.00
2023-03-20T08:05:56.181Z,122.50
2023-03-20T08:08:24.382Z,124.60
2023-03-20T08:10:52.229Z,113.20
2023-03-20T08:13:20.254Z,103.00
2023-03-20T08:15:48.197Z,133.80
2023-03-20T08:18:16.033Z,87.70
2023-03-20T08:20:43.860Z,326.20
2023-03-20T08:23:11.894Z,90.60
2023-03-20T08:25:39.689Z,114.50
2023-03-20T08:28:07.578Z,117.80
2023-03-20T08:30:35.787Z,63.20
2023-03-20T08:33:03.897Z,52.50
2023-03-20T08:35:33.640Z,55.60
2023-03-20T08:38:03.261Z,81.50
2023-03-20T08:40:31.841Z,142.40
2023-03-20T08:42:59.912Z,112.30
2023-03-20T08:45:27.771Z,47.40
2023-03-20T08:47:55.854Z,39.50
2023-03-20T08:50:23.760Z,62.10
2023-03-20T08:52:51.923Z,61.60
2023-03-20T08:55:20.157Z,66.50
2023-03-20T08:57:48.077Z,204.30
2023-03-20T09:00:16.909Z,72.50
2023-03-20T09:02:44.905Z,43.90
2023-03-20T09:05:13.335Z,25.70
2023-03-20T09:07:41.152Z,26.30
2023-03-20T09:10:10.334Z,28.00
2023-03-20T09:12:39.156Z,42.10
2023-03-20T09:15:08.245Z,57.90
2023-03-20T09:17:36.157Z,37.40
2023-03-20T09:20:04.578Z,23.60
2023-03-20T09:22:33.430Z,21.40
2023-03-20T09:25:01.259Z,35.50
2023-03-20T09:27:29.232Z,29.30
2023-03-20T09:29:57.184Z,24.70
2023-03-20T09:32:24.944Z,20.60
2023-03-20T09:34:52.833Z,20.80
2023-03-20T09:37:20.717Z,17.40
2023-03-20T09:39:48.578Z,18.80
2023-03-20T09:42:55.241Z,31.70
2023-03-20T09:45:39.998Z,38.90
2023-03-20T09:48:18.316Z,38.10
2023-03-20T09:50:55.986Z,64.70
2023-03-20T09:53:26.698Z,59.10
2023-03-20T09:55:56.976Z,25.60
2023-03-20T09:58:30.225Z,39.40
2023-03-20T10:01:03.589Z,25.70
2023-03-20T10:03:53.022Z,21.70
2023-03-20T10:06:20.994Z,19.30
2023-03-20T10:08:49.013Z,40.90
2023-03-20T10:11:47.882Z,24.90
2023-03-20T10:14:25.584Z,28.80
2023-03-20T10:17:02.593Z,28.90
2023-03-20T10:19:35.488Z,33.30
2023-03-20T10:22:26.872Z,22.30
2023-03-20T10:25:13.163Z,14.10
2023-03-20T10:27:48.505Z,14.40
2023-03-20T10:30:54.617Z,13.20
2023-03-20T10:33:32.043Z,15.10
2023-03-20T10:36:18.733Z,16.50
2023-03-20T10:39:18.134Z,16.20
2023-03-20T10:41:56.598Z,15.50
2023-03-20T10:44:33.472Z,20.80
2023-03-20T10:47:07.104Z,16.40
2023-03-20T10:49:41.445Z,18.10
2023-03-20T10:52:20.757Z,16.00
2023-03-20T10:54:56.374Z,16.00
2023-03-20T10:57:28.180Z,13.50
2023-03-20T10:59:57.730Z,15.00
2023-03-20T11:02:30.170Z,17.00
2023-03-20T11:05:08.058Z,17.00
2023-03-20T11:07:38.204Z,16.00
2023-03-20T11:10:10.525Z,18.40
2023-03-20T11:12:42.204Z,16.40
2023-03-20T11:15:16.527Z,17.10
2023-03-20T11:17:52.220Z,17.50
2023-03-20T11:20:20.447Z,17.50
2023-03-20T11:22:50.238Z,18.40
2023-03-20T11:25:34.389Z,16.80
2023-03-20T11:28:25.837Z,19.50
2023-03-20T11:31:05.374Z,21.20
2023-03-20T11:34:14.767Z,20.60
2023-03-20T11:37:08.782Z,19.10
2023-03-20T11:42:27.571Z,21.60
2023-03-20T11:45:00.935Z,22.50
2023-03-20T11:47:35.757Z,22.10
2023-03-20T11:50:06.619Z,20.70
2023-03-20T11:52:40.245Z,22.20
2023-03-20T11:55:25.159Z,18.90
2023-03-20T11:58:00.117Z,22.50
2023-03-20T12:00:41.554Z,20.30
2023-03-20T12:03:35.256Z,70.10
2023-03-20T12:06:06.836Z,82.70
2023-03-20T12:08:39.376Z,154.00
2023-03-20T12:11:34.954Z,79.50
2023-03-20T12:14:06.755Z,46.80
2023-03-20T12:16:38.131Z,22.20
2023-03-20T12:19:19.207Z,125.80
2023-03-20T12:21:55.867Z,59.60
2023-03-20T12:24:38.988Z,50.50
2023-03-20T12:27:21.266Z,181.80
2023-03-20T12:30:19.890Z,97.10
2023-03-20T12:33:11.416Z,121.40
2023-03-20T12:35:45.332Z,248.30
2023-03-20T12:38:31.720Z,70.70
2023-03-20T12:41:12.321Z,315.20
2023-03-20T12:44:09.776Z,44.40
2023-03-20T12:46:47.399Z,24.40
2023-03-20T12:49:52.091Z,25.20
2023-03-20T12:52:28.305Z,79.40
2023-03-20T12:55:17.974Z,126.00
2023-03-20T12:57:51.688Z,28.90
2023-03-20T13:00:38.506Z,46.20
2023-03-20T13:03:32.275Z,16.30
2023-03-20T13:06:50.419Z,16.00
2023-03-20T13:09:26.634Z,12.70
2023-03-20T13:12:10.177Z,13.30
2023-03-20T13:14:56.248Z,13.20
2023-03-20T13:17:40.501Z,12.00
2023-03-20T13:20:29.691Z,15.60
2023-03-20T13:23:19.490Z,14.10
2023-03-20T13:25:54.017Z,18.10
2023-03-20T13:28:30.902Z,16.80
2023-03-20T13:31:14.018Z,15.70
2023-03-20T13:34:11.313Z,15.20
2023-03-20T13:37:16.169Z,14.70
2023-03-20T13:40:14.840Z,11.50
2023-03-20T13:42:54.053Z,14.50
2023-03-20T13:45:37.257Z,15.20
2023-03-20T13:48:18.059Z,25.60
2023-03-20T13:50:54.357Z,18.90
2023-03-20T13:53:33.297Z,48.70
2023-03-20T13:56:13.339Z,23.40
2023-03-20T13:59:07.572Z,15.00
2023-03-20T14:01:49.340Z,11.90
2023-03-20T14:04:22.916Z,11.80
2023-03-20T14:06:56.995Z,13.40
2023-03-20T14:09:27.978Z,12.20
2023-03-20T14:12:00.404Z,13.40
2023-03-20T14:14:31.337Z,14.30
2023-03-20T14:17:15.377Z,16.40
2023-03-20T14:19:44.008Z,15.90
2023-03-20T14:22:17.878Z,15.70
2023-03-20T14:24:58.082Z,12.30
2023-03-20T14:27:43.997Z,14.00
2023-03-20T14:30:31.451Z,12.10
2023-03-20T14:33:14.758Z,11.20
2023-03-20T14:35:50.595Z,13.40
2023-03-20T14:38:21.691Z,10.90
2023-03-20T14:41:06.269Z,10.80
2023-03-20T14:44:14.919Z,13.20
2023-03-20T14:46:42.714Z,15.00
2023-03-20T14:49:48.644Z,21.40
2023-03-20T14:52:38.069Z,23.50
2023-03-20T14:55:18.077Z,23.00
2023-03-20T14:57:56.140Z,37.50
2023-03-20T15:00:28.338Z,36.30
2023-03-20T15:03:05.592Z,45.80
2023-03-20T15:05:36.910Z,32.50
2023-03-20T15:08:09.922Z,44.60
2023-03-20T15:10:47.114Z,45.20
2023-03-20T15:13:16.891Z,38.10
2023-03-20T15:16:12.949Z,34.50
2023-03-20T15:18:44.469Z,30.70
2023-03-20T15:21:18.557Z,37.50
2023-03-20T15:23:47.990Z,91.90
2023-03-20T15:26:18.367Z,41.20
2023-03-20T15:28:47.301Z,98.50
2023-03-20T15:31:25.392Z,31.60
2023-03-20T15:33:55.029Z,26.70
2023-03-20T15:36:27.138Z,34.20
2023-03-20T15:39:13.748Z,33.20
2023-03-20T15:41:46.794Z,50.30
2023-03-20T15:44:14.554Z,41.90
2023-03-20T15:47:01.549Z,52.90
2023-03-20T15:49:32.354Z,63.10
2023-03-20T15:52:05.915Z,65.80
2023-03-20T15:54:37.532Z,40.80
2023-03-20T15:57:05.790Z,40.00
2023-03-20T15:59:34.621Z,43.40
2023-03-20T16:02:04.319Z,52.40
2023-03-20T16:04:32.281Z,51.00
2023-03-20T16:07:01.438Z,59.00
2023-03-20T16:09:29.638Z,78.30
2023-03-20T16:12:03.218Z,67.40
2023-03-20T16:14:33.835Z,90.50
2023-03-20T16:17:03.567Z,98.10
2023-03-20T16:19:31.403Z,61.70
2023-03-20T16:22:05.694Z,90.50
2023-03-20T16:24:39.596Z,54.50
2023-03-20T16:27:10.076Z,47.30
2023-03-20T16:29:43.525Z,195.60
2023-03-20T16:32:21.553Z,70.30
2023-03-20T16:34:51.481Z,65.70
2023-03-20T16:37:31.573Z,49.20
2023-03-20T16:40:06.044Z,73.50
2023-03-20T16:42:34.136Z,99.50
2023-03-20T16:45:06.762Z,353.70
2023-03-20T16:47:38.510Z,226.90
2023-03-20T16:50:16.842Z,125.60
2023-03-20T16:52:49.259Z,224.80
2023-03-20T16:55:35.101Z,131.30
2023-03-20T16:58:07.482Z,65.50
2023-03-20T17:00:51.510Z,112.10
2023-03-20T17:03:27.128Z,246.60
2023-03-20T17:06:04.758Z,191.90
2023-03-20T17:08:40.725Z,184.70
2023-03-20T17:11:15.632Z,226.20
2023-03-20T17:13:43.485Z,194.60
2023-03-20T17:16:19.516Z,211.80
2023-03-20T17:18:58.628Z,83.90
2023-03-20T17:21:27.081Z,228.70
2023-03-20T17:23:55.411Z,225.20
2023-03-20T17:26:23.830Z,171.50
2023-03-20T17:28:51.701Z,189.30
2023-03-20T17:31:19.802Z,216.10
2023-03-20T17:33:48.004Z,180.70
2023-03-20T17:36:28.017Z,93.90
2023-03-20T17:38:57.746Z,129.40
2023-03-20T17:41:27.781Z,156.80
2023-03-20T17:43:56.747Z,79.60
2023-03-20T17:46:28.475Z,67.70
2023-03-20T17:49:01.099Z,81.80
2023-03-20T17:51:29.965Z,95.20
2023-03-20T17:53:58.160Z,94.40
2023-03-20T17:56:30.211Z,101.10
2023-03-20T17:58:59.252Z,87.90
2023-03-20T18:01:28.869Z,79.30
2023-03-20T18:03:58.652Z,96.80
2023-03-20T18:06:29.261Z,59.00
2023-03-20T18:08:58.906Z,71.90
2023-03-20T18:11:27.726Z,62.60
2023-03-20T18:13:56.334Z,56.90
2023-03-20T18:16:27.016Z,60.40
2023-03-20T18:18:54.945Z,67.70
2023-03-20T18:21:23.301Z,72.10
2023-03-20T18:23:51.523Z,66.60
2023-03-20T18:26:22.335Z,427.90
2023-03-20T18:28:52.262Z,95.20
2023-03-20T18:31:21.798Z,74.50
2023-03-20T18:33:51.584Z,79.00
2023-03-20T18:36:22.150Z,87.00
2023-03-20T18:38:51.664Z,92.80
2023-03-20T18:41:20.674Z,123.90
2023-03-20T18:43:48.695Z,123.00
2023-03-20T18:46:20.647Z,153.10
2023-03-20T18:48:51.899Z,209.80
2023-03-20T18:51:20.947Z,68.60
2023-03-20T18:53:48.766Z,54.80
2023-03-20T18:56:21.343Z,68.00
2023-03-20T18:58:49.837Z,82.20
2023-03-20T19:01:17.849Z,69.30
2023-03-20T19:03:47.695Z,68.90
2023-03-20T19:06:18.517Z,76.70
2023-03-20T19:08:47.688Z,103.30
2023-03-20T19:11:20.594Z,108.10
2023-03-20T19:13:52.436Z,115.80
2023-03-20T19:16:20.976Z,108.50
2023-03-20T19:18:52.666Z,90.80
2023-03-20T19:21:26.234Z,103.30
2023-03-20T19:23:56.796Z,102.20
2023-03-20T19:26:27.379Z,116.90
2023-03-20T19:28:57.894Z,131.40
2023-03-20T19:31:26.787Z,138.20
2023-03-20T19:33:56.822Z,126.00
2023-03-20T19:36:35.056Z,93.30
2023-03-20T19:39:07.185Z,93.30
2023-03-20T19:41:35.412Z,98.00
2023-03-20T19:44:03.475Z,110.30
2023-03-20T19:46:40.700Z,116.00
2023-03-20T19:49:18.948Z,121.10
2023-03-20T19:51:48.321Z,120.80
2023-03-20T19:54:17.046Z,184.60
2023-03-20T19:56:45.183Z,133.70
2023-03-20T19:59:16.225Z,97.80
2023-03-20T20:01:45.744Z,71.70
2023-03-20T20:04:14.287Z,65.60
2023-03-20T20:06:42.247Z,72.10
2023-03-20T20:09:10.223Z,58.80
2023-03-20T20:11:38.209Z,73.90
2023-03-20T20:14:09.669Z,84.30
2023-03-20T20:16:40.240Z,60.20
2023-03-20T20:19:08.279Z,59.70
2023-03-20T20:22:19.740Z,70.30
2023-03-20T20:24:24.541Z,77.80
2023-03-20T20:26:59.912Z,74.50
2023-03-20T20:29:35.214Z,85.50
2023-03-20T20:32:03.100Z,73.30
2023-03-20T20:40:12.368Z,116.40
2023-03-20T20:42:40.946Z,83.10
2023-03-20T20:45:11.977Z,71.60
2023-03-20T20:47:45.039Z,87.20
2023-03-20T20:50:15.023Z,83.40
2023-03-20T20:52:43.391Z,146.40
2023-03-20T20:55:22.648Z,136.30
2023-03-20T20:57:53.120Z,193.40
2023-03-20T21:00:27.412Z,202.20
2023-03-20T21:02:59.917Z,131.10
2023-03-20T21:05:28.321Z,85.40
2023-03-20T21:07:57.981Z,74.20
2023-03-20T21:10:25.833Z,130.10
2023-03-20T21:12:59.395Z,93.10
2023-03-20T21:15:28.232Z,172.70
2023-03-20T21:18:03.083Z,117.90
2023-03-20T21:20:32.239Z,86.20
2023-03-20T21:23:00.284Z,75.90
2023-03-20T21:25:39.540Z,95.50
2023-03-20T21:28:09.951Z,68.20
2023-03-20T21:30:44.220Z,63.00
2023-03-20T21:33:24.712Z,67.50
2023-03-20T21:35:53.903Z,76.40
2023-03-20T21:41:10.704Z,60.90
2023-03-20T21:43:39.767Z,64.70
2023-03-20T21:49:46.510Z,76.30
2023-03-20T22:03:01.620Z,83.30
2023-03-20T22:06:19.545Z,88.50
2023-03-20T22:20:29.111Z,55.00
2023-03-20T22:31:34.713Z,52.40
2023-03-20T22:37:27.709Z,48.80
2023-03-20T22:42:51.503Z,55.00
2023-03-20T22:45:02.958Z,46.60
2023-03-20T22:47:32.085Z,55.20
2023-03-20T22:49:59.967Z,50.40
2023-03-20T22:52:41.708Z,45.40
2023-03-20T22:55:13.876Z,44.70
2023-03-20T22:57:50.097Z,45.60
2023-03-20T23:00:21.153Z,44.40
2023-03-20T23:02:49.002Z,47.00
2023-03-20T23:05:17.037Z,74.10
2023-03-20T23:07:44.925Z,59.60
2023-03-20T23:10:15.654Z,49.70
2023-03-20T23:12:44.277Z,50.80
2023-03-20T23:15:12.218Z,45.60
2023-03-20T23:17:40.294Z,46.00
2023-03-20T23:20:12.934Z,48.90
2023-03-20T23:22:42.862Z,44.60
2023-03-20T23:25:21.007Z,47.10
2023-03-20T23:27:58.802Z,55.20
2023-03-20T23:30:34.004Z,55.90
2023-03-20T23:33:06.537Z,57.10
2023-03-20T23:35:34.441Z,65.70
2023-03-20T23:38:02.355Z,66.60
2023-03-20T23:40:31.165Z,60.50
2023-03-20T23:42:58.944Z,52.10
2023-03-20T23:45:27.175Z,53.10
2023-03-20T23:47:55.047Z,46.30
2023-03-20T23:50:45.891Z,40.70
2023-03-20T23:53:19.781Z,44.00
2023-03-20T23:55:51.967Z,39.50
2023-03-20T23:58:21.846Z,62.50
